sensor_id;sensor_type;location;lat;lon;timestamp;P1;durP1;ratioP1;P2;durP2;ratioP2
6412;SDS011;3239;48.714;9.472;2022-07-22T00:00:15;5.20;;;4.80;;
6412;SDS011;3239;48.714;9.472;2022-07-22T00:02:41;6.20;;;5.03;;
6412;SDS011;3239;48.714;9.472;2022-07-22T00:05:08;6.00;;;5.00;;
6412;SDS011;3239;48.714;9.472;2022-07-22T00:07:35;6.10;;;5.60;;
6412;SDS011;3239;48.714;9.472;2022-07-22T00:10:03;6.83;;;4.90;;
6412;SDS011;3239;48.714;9.472;2022-07-22T00:12:32;5.27;;;4.87;;
6412;SDS011;3239;48.714;9.472;2022-07-22T00:14:58;5.10;;;4.70;;
6412;SDS011;3239;48.714;9.472;2022-07-22T00:17:24;5.30;;;4.80;;
6412;SDS011;3239;48.714;9.472;2022-07-22T00:19:50;7.90;;;5.10;;
6412;SDS011;3239;48.714;9.472;2022-07-22T00:22:15;5.70;;;5.20;;
6412;SDS011;3239;48.714;9.472;2022-07-22T00:24:41;5.70;;;5.30;;
6412;SDS011;3239;48.714;9.472;2022-07-22T00:27:07;11.40;;;5.17;;
6412;SDS011;3239;48.714;9.472;2022-07-22T00:29:33;5.70;;;5.20;;
6412;SDS011;3239;48.714;9.472;2022-07-22T00:31:58;5.53;;;5.00;;
6412;SDS011;3239;48.714;9.472;2022-07-22T00:34:24;6.57;;;4.83;;
6412;SDS011;3239;48.714;9.472;2022-07-22T00:36:50;6.63;;;6.07;;
6412;SDS011;3239;48.714;9.472;2022-07-22T00:39:16;6.83;;;4.63;;
6412;SDS011;3239;48.714;9.472;2022-07-22T00:41:42;5.93;;;5.40;;
6412;SDS011;3239;48.714;9.472;2022-07-22T00:44:08;5.90;;;5.40;;
6412;SDS011;3239;48.714;9.472;2022-07-22T00:46:34;5.73;;;4.83;;
6412;SDS011;3239;48.714;9.472;2022-07-22T00:49:03;7.10;;;5.43;;
6412;SDS011;3239;48.714;9.472;2022-07-22T00:51:31;5.67;;;5.03;;
6412;SDS011;3239;48.714;9.472;2022-07-22T00:53:58;8.23;;;5.00;;
6412;SDS011;3239;48.714;9.472;2022-07-22T00:56:26;8.80;;;5.23;;
6412;SDS011;3239;48.714;9.472;2022-07-22T00:58:53;5.63;;;5.20;;
6412;SDS011;3239;48.714;9.472;2022-07-22T01:01:24;8.30;;;5.50;;
6412;SDS011;3239;48.714;9.472;2022-07-22T01:03:50;7.37;;;5.43;;
6412;SDS011;3239;48.714;9.472;2022-07-22T01:06:16;12.70;;;5.63;;
6412;SDS011;3239;48.714;9.472;2022-07-22T01:08:42;5.80;;;5.30;;
6412;SDS011;3239;48.714;9.472;2022-07-22T01:11:13;6.67;;;5.23;;
6412;SDS011;3239;48.714;9.472;2022-07-22T01:13:42;9.90;;;5.27;;
6412;SDS011;3239;48.714;9.472;2022-07-22T01:16:10;5.70;;;4.87;;
6412;SDS011;3239;48.714;9.472;2022-07-22T01:18:37;5.77;;;5.27;;
6412;SDS011;3239;48.714;9.472;2022-07-22T01:21:05;5.90;;;5.27;;
6412;SDS011;3239;48.714;9.472;2022-07-22T01:23:31;7.00;;;5.90;;
6412;SDS011;3239;48.714;9.472;2022-07-22T01:25:58;6.80;;;5.30;;
6412;SDS011;3239;48.714;9.472;2022-07-22T01:28:24;5.97;;;5.47;;
6412;SDS011;3239;48.714;9.472;2022-07-22T01:30:50;5.80;;;5.30;;
6412;SDS011;3239;48.714;9.472;2022-07-22T01:33:17;12.70;;;5.53;;
6412;SDS011;3239;48.714;9.472;2022-07-22T01:35:44;6.03;;;5.43;;
6412;SDS011;3239;48.714;9.472;2022-07-22T01:38:11;6.60;;;5.87;;
6412;SDS011;3239;48.714;9.472;2022-07-22T01:40:37;6.07;;;5.47;;
6412;SDS011;3239;48.714;9.472;2022-07-22T01:43:04;8.83;;;6.07;;
6412;SDS011;3239;48.714;9.472;2022-07-22T01:45:30;6.70;;;5.60;;
6412;SDS011;3239;48.714;9.472;2022-07-22T01:47:56;8.73;;;5.63;;
6412;SDS011;3239;48.714;9.472;2022-07-22T01:50:22;7.90;;;5.23;;
6412;SDS011;3239;48.714;9.472;2022-07-22T01:52:49;6.60;;;6.00;;
6412;SDS011;3239;48.714;9.472;2022-07-22T01:55:15;6.17;;;5.60;;
6412;SDS011;3239;48.714;9.472;2022-07-22T01:57:41;5.73;;;5.13;;
6412;SDS011;3239;48.714;9.472;2022-07-22T02:00:07;6.47;;;5.50;;
6412;SDS011;3239;48.714;9.472;2022-07-22T02:02:34;9.57;;;5.40;;
6412;SDS011;3239;48.714;9.472;2022-07-22T02:05:01;6.10;;;5.67;;
6412;SDS011;3239;48.714;9.472;2022-07-22T02:07:28;7.13;;;6.00;;
6412;SDS011;3239;48.714;9.472;2022-07-22T02:09:54;6.50;;;6.00;;
6412;SDS011;3239;48.714;9.472;2022-07-22T02:12:20;6.93;;;6.33;;
6412;SDS011;3239;48.714;9.472;2022-07-22T02:14:46;7.90;;;5.93;;
6412;SDS011;3239;48.714;9.472;2022-07-22T02:17:12;7.17;;;6.20;;
6412;SDS011;3239;48.714;9.472;2022-07-22T02:19:39;6.73;;;6.13;;
6412;SDS011;3239;48.714;9.472;2022-07-22T02:22:05;6.80;;;5.73;;
6412;SDS011;3239;48.714;9.472;2022-07-22T02:24:31;6.80;;;6.07;;
6412;SDS011;3239;48.714;9.472;2022-07-22T02:26:57;7.63;;;6.30;;
6412;SDS011;3239;48.714;9.472;2022-07-22T02:29:23;6.73;;;5.50;;
6412;SDS011;3239;48.714;9.472;2022-07-22T02:31:49;6.57;;;5.90;;
6412;SDS011;3239;48.714;9.472;2022-07-22T02:34:15;6.50;;;5.80;;
6412;SDS011;3239;48.714;9.472;2022-07-22T02:36:41;6.83;;;6.13;;
6412;SDS011;3239;48.714;9.472;2022-07-22T02:39:07;10.70;;;5.97;;
6412;SDS011;3239;48.714;9.472;2022-07-22T02:41:33;8.33;;;5.97;;
6412;SDS011;3239;48.714;9.472;2022-07-22T02:43:59;9.87;;;6.60;;
6412;SDS011;3239;48.714;9.472;2022-07-22T02:46:25;9.00;;;6.37;;
6412;SDS011;3239;48.714;9.472;2022-07-22T02:48:53;7.20;;;6.20;;
6412;SDS011;3239;48.714;9.472;2022-07-22T02:51:19;7.30;;;6.60;;
6412;SDS011;3239;48.714;9.472;2022-07-22T02:53:46;7.40;;;6.63;;
6412;SDS011;3239;48.714;9.472;2022-07-22T02:56:11;6.97;;;6.27;;
6412;SDS011;3239;48.714;9.472;2022-07-22T02:58:38;7.50;;;6.70;;
6412;SDS011;3239;48.714;9.472;2022-07-22T03:01:04;6.87;;;6.23;;
6412;SDS011;3239;48.714;9.472;2022-07-22T03:03:30;8.20;;;5.93;;
6412;SDS011;3239;48.714;9.472;2022-07-22T03:05:56;7.10;;;6.40;;
6412;SDS011;3239;48.714;9.472;2022-07-22T03:08:22;6.47;;;5.87;;
6412;SDS011;3239;48.714;9.472;2022-07-22T03:10:48;13.07;;;6.53;;
6412;SDS011;3239;48.714;9.472;2022-07-22T03:13:14;9.40;;;6.03;;
6412;SDS011;3239;48.714;9.472;2022-07-22T03:15:40;8.23;;;6.20;;
6412;SDS011;3239;48.714;9.472;2022-07-22T03:18:06;8.60;;;6.50;;
6412;SDS011;3239;48.714;9.472;2022-07-22T03:20:31;6.93;;;6.23;;
6412;SDS011;3239;48.714;9.472;2022-07-22T03:22:58;6.97;;;6.33;;
6412;SDS011;3239;48.714;9.472;2022-07-22T03:25:24;9.80;;;6.53;;
6412;SDS011;3239;48.714;9.472;2022-07-22T03:27:50;7.33;;;6.63;;
6412;SDS011;3239;48.714;9.472;2022-07-22T03:30:16;7.30;;;6.60;;
6412;SDS011;3239;48.714;9.472;2022-07-22T03:32:42;10.50;;;6.40;;
6412;SDS011;3239;48.714;9.472;2022-07-22T03:35:14;6.60;;;6.00;;
6412;SDS011;3239;48.714;9.472;2022-07-22T03:37:41;6.70;;;6.10;;
6412;SDS011;3239;48.714;9.472;2022-07-22T03:40:07;6.60;;;5.90;;
6412;SDS011;3239;48.714;9.472;2022-07-22T03:42:34;7.13;;;6.50;;
6412;SDS011;3239;48.714;9.472;2022-07-22T03:45:00;6.20;;;5.73;;
6412;SDS011;3239;48.714;9.472;2022-07-22T03:47:26;9.33;;;6.67;;
6412;SDS011;3239;48.714;9.472;2022-07-22T03:49:52;7.87;;;6.80;;
6412;SDS011;3239;48.714;9.472;2022-07-22T03:52:18;7.00;;;6.40;;
6412;SDS011;3239;48.714;9.472;2022-07-22T03:54:44;8.30;;;7.00;;
6412;SDS011;3239;48.714;9.472;2022-07-22T03:57:10;7.57;;;6.93;;
6412;SDS011;3239;48.714;9.472;2022-07-22T03:59:36;12.70;;;6.97;;
6412;SDS011;3239;48.714;9.472;2022-07-22T04:02:02;6.90;;;6.30;;
6412;SDS011;3239;48.714;9.472;2022-07-22T04:04:28;8.03;;;6.30;;
6412;SDS011;3239;48.714;9.472;2022-07-22T04:06:54;8.33;;;5.60;;
6412;SDS011;3239;48.714;9.472;2022-07-22T04:09:21;7.73;;;6.30;;
6412;SDS011;3239;48.714;9.472;2022-07-22T04:11:47;8.57;;;6.07;;
6412;SDS011;3239;48.714;9.472;2022-07-22T04:14:15;7.00;;;6.00;;
6412;SDS011;3239;48.714;9.472;2022-07-22T04:19:16;7.10;;;6.13;;
6412;SDS011;3239;48.714;9.472;2022-07-22T04:21:42;9.33;;;7.10;;
6412;SDS011;3239;48.714;9.472;2022-07-22T04:24:08;6.80;;;6.20;;
6412;SDS011;3239;48.714;9.472;2022-07-22T04:26:33;6.07;;;5.47;;
6412;SDS011;3239;48.714;9.472;2022-07-22T04:29:01;6.63;;;5.70;;
6412;SDS011;3239;48.714;9.472;2022-07-22T04:31:28;7.30;;;6.70;;
6412;SDS011;3239;48.714;9.472;2022-07-22T04:33:54;10.00;;;5.47;;
6412;SDS011;3239;48.714;9.472;2022-07-22T04:36:19;6.00;;;5.40;;
6412;SDS011;3239;48.714;9.472;2022-07-22T04:38:46;7.37;;;6.17;;
6412;SDS011;3239;48.714;9.472;2022-07-22T04:41:13;6.63;;;5.80;;
6412;SDS011;3239;48.714;9.472;2022-07-22T04:43:39;7.53;;;6.60;;
6412;SDS011;3239;48.714;9.472;2022-07-22T04:46:04;7.90;;;6.73;;
6412;SDS011;3239;48.714;9.472;2022-07-22T04:48:30;7.40;;;6.40;;
6412;SDS011;3239;48.714;9.472;2022-07-22T04:50:59;8.00;;;7.00;;
6412;SDS011;3239;48.714;9.472;2022-07-22T04:53:27;8.17;;;7.00;;
6412;SDS011;3239;48.714;9.472;2022-07-22T04:55:53;9.67;;;6.77;;
6412;SDS011;3239;48.714;9.472;2022-07-22T04:58:18;8.30;;;7.47;;
6412;SDS011;3239;48.714;9.472;2022-07-22T05:00:44;7.83;;;7.13;;
6412;SDS011;3239;48.714;9.472;2022-07-22T05:03:11;7.83;;;6.83;;
6412;SDS011;3239;48.714;9.472;2022-07-22T05:05:38;13.37;;;6.33;;
6412;SDS011;3239;48.714;9.472;2022-07-22T05:08:04;7.60;;;6.47;;
6412;SDS011;3239;48.714;9.472;2022-07-22T05:10:30;7.30;;;6.60;;
6412;SDS011;3239;48.714;9.472;2022-07-22T05:12:56;12.90;;;8.10;;
6412;SDS011;3239;48.714;9.472;2022-07-22T05:15:22;9.20;;;8.40;;
6412;SDS011;3239;48.714;9.472;2022-07-22T05:17:48;7.73;;;6.80;;
6412;SDS011;3239;48.714;9.472;2022-07-22T05:20:15;12.30;;;7.87;;
6412;SDS011;3239;48.714;9.472;2022-07-22T05:22:41;8.10;;;7.30;;
6412;SDS011;3239;48.714;9.472;2022-07-22T05:25:07;8.07;;;7.40;;
6412;SDS011;3239;48.714;9.472;2022-07-22T05:27:33;9.23;;;7.07;;
6412;SDS011;3239;48.714;9.472;2022-07-22T05:29:59;10.60;;;7.90;;
6412;SDS011;3239;48.714;9.472;2022-07-22T05:32:25;10.60;;;8.50;;
6412;SDS011;3239;48.714;9.472;2022-07-22T05:34:51;8.10;;;6.73;;
6412;SDS011;3239;48.714;9.472;2022-07-22T05:37:16;10.57;;;7.10;;
6412;SDS011;3239;48.714;9.472;2022-07-22T05:39:43;8.17;;;7.47;;
6412;SDS011;3239;48.714;9.472;2022-07-22T05:42:09;10.33;;;7.60;;
6412;SDS011;3239;48.714;9.472;2022-07-22T05:44:35;7.43;;;6.83;;
6412;SDS011;3239;48.714;9.472;2022-07-22T05:47:00;13.67;;;7.70;;
6412;SDS011;3239;48.714;9.472;2022-07-22T05:49:26;9.63;;;8.00;;
6412;SDS011;3239;48.714;9.472;2022-07-22T05:51:52;8.80;;;7.90;;
6412;SDS011;3239;48.714;9.472;2022-07-22T05:54:19;15.77;;;8.40;;
6412;SDS011;3239;48.714;9.472;2022-07-22T05:56:45;8.80;;;7.90;;
6412;SDS011;3239;48.714;9.472;2022-07-22T05:59:10;9.53;;;8.60;;
6412;SDS011;3239;48.714;9.472;2022-07-22T06:01:36;10.30;;;9.23;;
6412;SDS011;3239;48.714;9.472;2022-07-22T06:04:02;10.20;;;9.07;;
6412;SDS011;3239;48.714;9.472;2022-07-22T06:06:28;9.93;;;8.90;;
6412;SDS011;3239;48.714;9.472;2022-07-22T06:08:54;9.57;;;8.57;;
6412;SDS011;3239;48.714;9.472;2022-07-22T06:11:20;9.70;;;8.83;;
6412;SDS011;3239;48.714;9.472;2022-07-22T06:13:46;10.87;;;8.50;;
6412;SDS011;3239;48.714;9.472;2022-07-22T06:16:12;10.40;;;8.00;;
6412;SDS011;3239;48.714;9.472;2022-07-22T06:18:37;13.60;;;8.17;;
6412;SDS011;3239;48.714;9.472;2022-07-22T06:21:03;8.40;;;7.53;;
6412;SDS011;3239;48.714;9.472;2022-07-22T06:23:30;14.33;;;8.57;;
6412;SDS011;3239;48.714;9.472;2022-07-22T06:25:56;10.70;;;7.60;;
6412;SDS011;3239;48.714;9.472;2022-07-22T06:28:21;12.63;;;8.10;;
6412;SDS011;3239;48.714;9.472;2022-07-22T06:30:47;13.43;;;7.90;;
6412;SDS011;3239;48.714;9.472;2022-07-22T06:33:13;11.77;;;7.20;;
6412;SDS011;3239;48.714;9.472;2022-07-22T06:35:39;7.47;;;6.87;;
6412;SDS011;3239;48.714;9.472;2022-07-22T06:38:05;9.53;;;6.67;;
6412;SDS011;3239;48.714;9.472;2022-07-22T06:40:32;8.37;;;7.30;;
6412;SDS011;3239;48.714;9.472;2022-07-22T06:42:59;9.67;;;7.77;;
6412;SDS011;3239;48.714;9.472;2022-07-22T06:45:24;11.00;;;7.30;;
6412;SDS011;3239;48.714;9.472;2022-07-22T06:47:50;7.53;;;6.77;;
6412;SDS011;3239;48.714;9.472;2022-07-22T06:50:16;9.57;;;7.50;;
6412;SDS011;3239;48.714;9.472;2022-07-22T06:52:42;9.83;;;7.23;;
6412;SDS011;3239;48.714;9.472;2022-07-22T06:55:08;7.30;;;6.60;;
6412;SDS011;3239;48.714;9.472;2022-07-22T06:57:35;8.33;;;7.03;;
6412;SDS011;3239;48.714;9.472;2022-07-22T07:00:03;9.23;;;6.30;;
6412;SDS011;3239;48.714;9.472;2022-07-22T07:02:31;8.30;;;5.93;;
6412;SDS011;3239;48.714;9.472;2022-07-22T07:04:57;9.03;;;6.30;;
6412;SDS011;3239;48.714;9.472;2022-07-22T07:07:23;7.30;;;6.70;;
6412;SDS011;3239;48.714;9.472;2022-07-22T07:09:49;7.40;;;6.63;;
6412;SDS011;3239;48.714;9.472;2022-07-22T07:12:15;7.67;;;6.53;;
6412;SDS011;3239;48.714;9.472;2022-07-22T07:14:40;7.80;;;6.40;;
6412;SDS011;3239;48.714;9.472;2022-07-22T07:17:06;6.50;;;5.90;;
6412;SDS011;3239;48.714;9.472;2022-07-22T07:19:32;6.30;;;5.63;;
6412;SDS011;3239;48.714;9.472;2022-07-22T07:21:58;6.77;;;6.13;;
6412;SDS011;3239;48.714;9.472;2022-07-22T07:24:23;7.57;;;6.77;;
6412;SDS011;3239;48.714;9.472;2022-07-22T07:26:49;7.93;;;6.67;;
6412;SDS011;3239;48.714;9.472;2022-07-22T07:29:15;8.30;;;6.50;;
6412;SDS011;3239;48.714;9.472;2022-07-22T07:31:41;11.03;;;6.50;;
6412;SDS011;3239;48.714;9.472;2022-07-22T07:34:07;6.70;;;6.03;;
6412;SDS011;3239;48.714;9.472;2022-07-22T07:36:33;7.83;;;6.53;;
6412;SDS011;3239;48.714;9.472;2022-07-22T07:38:58;7.00;;;6.40;;
6412;SDS011;3239;48.714;9.472;2022-07-22T07:41:24;6.30;;;5.70;;
6412;SDS011;3239;48.714;9.472;2022-07-22T07:43:50;8.63;;;6.90;;
6412;SDS011;3239;48.714;9.472;2022-07-22T07:46:16;7.03;;;6.17;;
6412;SDS011;3239;48.714;9.472;2022-07-22T07:48:41;5.80;;;5.30;;
6412;SDS011;3239;48.714;9.472;2022-07-22T07:51:07;6.60;;;6.00;;
6412;SDS011;3239;48.714;9.472;2022-07-22T07:53:33;7.40;;;6.23;;
6412;SDS011;3239;48.714;9.472;2022-07-22T07:55:59;13.73;;;7.10;;
6412;SDS011;3239;48.714;9.472;2022-07-22T07:58:25;7.40;;;6.27;;
6412;SDS011;3239;48.714;9.472;2022-07-22T08:00:51;9.90;;;6.10;;
6412;SDS011;3239;48.714;9.472;2022-07-22T08:03:17;10.10;;;6.67;;
6412;SDS011;3239;48.714;9.472;2022-07-22T08:05:42;7.03;;;6.27;;
6412;SDS011;3239;48.714;9.472;2022-07-22T08:08:08;10.37;;;7.33;;
6412;SDS011;3239;48.714;9.472;2022-07-22T08:10:34;7.17;;;5.57;;
6412;SDS011;3239;48.714;9.472;2022-07-22T08:13:00;7.03;;;6.33;;
6412;SDS011;3239;48.714;9.472;2022-07-22T08:15:28;11.60;;;6.70;;
6412;SDS011;3239;48.714;9.472;2022-07-22T08:17:54;7.53;;;6.00;;
6412;SDS011;3239;48.714;9.472;2022-07-22T08:20:21;7.20;;;6.60;;
6412;SDS011;3239;48.714;9.472;2022-07-22T08:22:49;6.90;;;6.30;;
6412;SDS011;3239;48.714;9.472;2022-07-22T08:25:16;11.03;;;5.73;;
6412;SDS011;3239;48.714;9.472;2022-07-22T08:27:43;11.53;;;6.57;;
6412;SDS011;3239;48.714;9.472;2022-07-22T08:30:09;7.97;;;6.67;;
6412;SDS011;3239;48.714;9.472;2022-07-22T08:32:35;7.20;;;6.17;;
6412;SDS011;3239;48.714;9.472;2022-07-22T08:35:02;9.67;;;6.10;;
6412;SDS011;3239;48.714;9.472;2022-07-22T08:37:29;5.50;;;5.10;;
6412;SDS011;3239;48.714;9.472;2022-07-22T08:39:55;7.10;;;6.37;;
6412;SDS011;3239;48.714;9.472;2022-07-22T08:42:21;14.13;;;7.00;;
6412;SDS011;3239;48.714;9.472;2022-07-22T08:44:47;8.00;;;5.70;;
6412;SDS011;3239;48.714;9.472;2022-07-22T08:47:14;7.93;;;5.50;;
6412;SDS011;3239;48.714;9.472;2022-07-22T08:49:40;9.97;;;5.30;;
6412;SDS011;3239;48.714;9.472;2022-07-22T08:52:06;5.13;;;4.63;;
6412;SDS011;3239;48.714;9.472;2022-07-22T08:54:32;7.17;;;5.50;;
6412;SDS011;3239;48.714;9.472;2022-07-22T08:56:57;7.53;;;5.13;;
6412;SDS011;3239;48.714;9.472;2022-07-22T08:59:24;7.20;;;4.90;;
6412;SDS011;3239;48.714;9.472;2022-07-22T09:02:03;5.70;;;4.80;;
6412;SDS011;3239;48.714;9.472;2022-07-22T09:04:49;5.07;;;4.67;;
6412;SDS011;3239;48.714;9.472;2022-07-22T09:07:29;5.50;;;5.00;;
6412;SDS011;3239;48.714;9.472;2022-07-22T09:10:01;4.57;;;4.17;;
6412;SDS011;3239;48.714;9.472;2022-07-22T09:12:32;5.53;;;4.60;;
6412;SDS011;3239;48.714;9.472;2022-07-22T09:15:00;5.33;;;4.90;;
6412;SDS011;3239;48.714;9.472;2022-07-22T09:17:32;4.50;;;4.10;;
6412;SDS011;3239;48.714;9.472;2022-07-22T09:20:04;10.27;;;5.13;;
6412;SDS011;3239;48.714;9.472;2022-07-22T09:22:45;6.23;;;4.77;;
6412;SDS011;3239;48.714;9.472;2022-07-22T09:27:42;5.33;;;4.93;;
6412;SDS011;3239;48.714;9.472;2022-07-22T09:30:16;5.60;;;4.17;;
6412;SDS011;3239;48.714;9.472;2022-07-22T09:32:45;4.27;;;3.87;;
6412;SDS011;3239;48.714;9.472;2022-07-22T09:35:12;5.13;;;4.00;;
6412;SDS011;3239;48.714;9.472;2022-07-22T09:37:46;4.70;;;4.10;;
6412;SDS011;3239;48.714;9.472;2022-07-22T09:40:24;4.63;;;4.13;;
6412;SDS011;3239;48.714;9.472;2022-07-22T09:42:53;7.20;;;4.67;;
6412;SDS011;3239;48.714;9.472;2022-07-22T09:45:27;6.17;;;4.70;;
6412;SDS011;3239;48.714;9.472;2022-07-22T09:47:55;6.13;;;4.10;;
6412;SDS011;3239;48.714;9.472;2022-07-22T09:50:23;5.63;;;4.40;;
6412;SDS011;3239;48.714;9.472;2022-07-22T09:52:57;4.80;;;4.40;;
6412;SDS011;3239;48.714;9.472;2022-07-22T09:55:25;5.73;;;4.17;;
6412;SDS011;3239;48.714;9.472;2022-07-22T09:57:54;5.00;;;4.60;;
6412;SDS011;3239;48.714;9.472;2022-07-22T10:00:23;4.83;;;3.93;;
6412;SDS011;3239;48.714;9.472;2022-07-22T10:02:53;6.73;;;4.73;;
6412;SDS011;3239;48.714;9.472;2022-07-22T10:05:25;5.60;;;4.90;;
6412;SDS011;3239;48.714;9.472;2022-07-22T10:07:55;5.57;;;4.53;;
6412;SDS011;3239;48.714;9.472;2022-07-22T10:10:24;6.33;;;4.47;;
6412;SDS011;3239;48.714;9.472;2022-07-22T10:12:53;4.83;;;4.43;;
6412;SDS011;3239;48.714;9.472;2022-07-22T10:15:22;5.80;;;4.33;;
6412;SDS011;3239;48.714;9.472;2022-07-22T10:17:51;7.67;;;4.00;;
6412;SDS011;3239;48.714;9.472;2022-07-22T10:20:21;5.20;;;4.70;;
6412;SDS011;3239;48.714;9.472;2022-07-22T10:22:56;5.77;;;5.17;;
6412;SDS011;3239;48.714;9.472;2022-07-22T10:25:32;5.10;;;4.50;;
6412;SDS011;3239;48.714;9.472;2022-07-22T10:28:40;6.83;;;4.43;;
6412;SDS011;3239;48.714;9.472;2022-07-22T10:31:22;5.90;;;4.90;;
6412;SDS011;3239;48.714;9.472;2022-07-22T10:33:56;7.50;;;4.53;;
6412;SDS011;3239;48.714;9.472;2022-07-22T10:36:35;5.10;;;4.60;;
6412;SDS011;3239;48.714;9.472;2022-07-22T10:39:04;5.20;;;4.30;;
6412;SDS011;3239;48.714;9.472;2022-07-22T10:41:34;5.23;;;3.77;;
6412;SDS011;3239;48.714;9.472;2022-07-22T10:44:02;4.67;;;4.30;;
6412;SDS011;3239;48.714;9.472;2022-07-22T10:46:48;4.93;;;4.40;;
6412;SDS011;3239;48.714;9.472;2022-07-22T10:49:19;6.23;;;4.37;;
6412;SDS011;3239;48.714;9.472;2022-07-22T10:54:32;4.97;;;4.50;;
6412;SDS011;3239;48.714;9.472;2022-07-22T10:56:59;5.70;;;4.17;;
6412;SDS011;3239;48.714;9.472;2022-07-22T10:59:25;5.47;;;4.27;;
6412;SDS011;3239;48.714;9.472;2022-07-22T11:01:52;4.43;;;3.93;;
6412;SDS011;3239;48.714;9.472;2022-07-22T11:04:22;5.27;;;4.50;;
6412;SDS011;3239;48.714;9.472;2022-07-22T11:06:54;5.77;;;4.50;;
6412;SDS011;3239;48.714;9.472;2022-07-22T11:09:22;5.83;;;4.67;;
6412;SDS011;3239;48.714;9.472;2022-07-22T11:11:58;5.67;;;5.27;;
6412;SDS011;3239;48.714;9.472;2022-07-22T11:14:31;8.60;;;4.80;;
6412;SDS011;3239;48.714;9.472;2022-07-22T11:16:59;4.97;;;4.57;;
6412;SDS011;3239;48.714;9.472;2022-07-22T11:19:33;5.20;;;4.70;;
6412;SDS011;3239;48.714;9.472;2022-07-22T11:22:07;5.00;;;4.60;;
6412;SDS011;3239;48.714;9.472;2022-07-22T11:24:36;5.90;;;4.57;;
6412;SDS011;3239;48.714;9.472;2022-07-22T11:27:03;5.20;;;4.80;;
6412;SDS011;3239;48.714;9.472;2022-07-22T11:29:37;5.40;;;4.90;;
6412;SDS011;3239;48.714;9.472;2022-07-22T11:32:08;5.10;;;4.50;;
6412;SDS011;3239;48.714;9.472;2022-07-22T11:34:40;6.57;;;5.10;;
6412;SDS011;3239;48.714;9.472;2022-07-22T11:37:10;5.17;;;4.67;;
6412;SDS011;3239;48.714;9.472;2022-07-22T11:39:36;7.40;;;5.07;;
6412;SDS011;3239;48.714;9.472;2022-07-22T11:42:02;4.90;;;4.40;;
6412;SDS011;3239;48.714;9.472;2022-07-22T11:44:29;5.80;;;4.30;;
6412;SDS011;3239;48.714;9.472;2022-07-22T11:46:59;5.17;;;4.67;;
6412;SDS011;3239;48.714;9.472;2022-07-22T11:49:26;5.47;;;4.87;;
6412;SDS011;3239;48.714;9.472;2022-07-22T11:51:54;4.63;;;4.20;;
6412;SDS011;3239;48.714;9.472;2022-07-22T11:54:20;6.73;;;5.20;;
6412;SDS011;3239;48.714;9.472;2022-07-22T11:56:46;5.33;;;4.23;;
6412;SDS011;3239;48.714;9.472;2022-07-22T11:59:13;5.50;;;4.90;;
6412;SDS011;3239;48.714;9.472;2022-07-22T12:01:42;5.80;;;4.60;;
6412;SDS011;3239;48.714;9.472;2022-07-22T12:04:11;4.97;;;4.57;;
6412;SDS011;3239;48.714;9.472;2022-07-22T12:06:46;6.27;;;4.43;;
6412;SDS011;3239;48.714;9.472;2022-07-22T12:09:17;5.03;;;4.33;;
6412;SDS011;3239;48.714;9.472;2022-07-22T12:11:51;7.53;;;4.87;;
6412;SDS011;3239;48.714;9.472;2022-07-22T12:14:23;4.57;;;4.17;;
6412;SDS011;3239;48.714;9.472;2022-07-22T12:16:56;9.13;;;4.33;;
6412;SDS011;3239;48.714;9.472;2022-07-22T12:19:23;4.70;;;4.10;;
6412;SDS011;3239;48.714;9.472;2022-07-22T12:22:03;4.70;;;4.30;;
6412;SDS011;3239;48.714;9.472;2022-07-22T12:24:44;4.27;;;3.97;;
6412;SDS011;3239;48.714;9.472;2022-07-22T12:27:21;12.83;;;3.83;;
6412;SDS011;3239;48.714;9.472;2022-07-22T12:29:48;4.50;;;4.10;;
6412;SDS011;3239;48.714;9.472;2022-07-22T12:32:16;5.17;;;4.67;;
6412;SDS011;3239;48.714;9.472;2022-07-22T12:37:22;5.23;;;4.73;;
6412;SDS011;3239;48.714;9.472;2022-07-22T12:39:55;4.23;;;3.90;;
6412;SDS011;3239;48.714;9.472;2022-07-22T12:42:44;4.10;;;3.70;;
6412;SDS011;3239;48.714;9.472;2022-07-22T12:45:24;7.80;;;4.30;;
6412;SDS011;3239;48.714;9.472;2022-07-22T12:47:54;10.50;;;4.33;;
6412;SDS011;3239;48.714;9.472;2022-07-22T12:53:06;6.10;;;4.13;;
6412;SDS011;3239;48.714;9.472;2022-07-22T12:55:39;6.07;;;3.93;;
6412;SDS011;3239;48.714;9.472;2022-07-22T12:58:08;5.90;;;4.47;;
6412;SDS011;3239;48.714;9.472;2022-07-22T13:00:37;4.80;;;4.40;;
6412;SDS011;3239;48.714;9.472;2022-07-22T13:03:08;9.13;;;4.30;;
6412;SDS011;3239;48.714;9.472;2022-07-22T13:05:35;6.33;;;4.50;;
6412;SDS011;3239;48.714;9.472;2022-07-22T13:08:01;4.67;;;3.80;;
6412;SDS011;3239;48.714;9.472;2022-07-22T13:10:28;4.67;;;4.27;;
6412;SDS011;3239;48.714;9.472;2022-07-22T13:12:54;4.77;;;4.00;;
6412;SDS011;3239;48.714;9.472;2022-07-22T13:15:20;4.27;;;3.87;;
6412;SDS011;3239;48.714;9.472;2022-07-22T13:17:47;4.93;;;4.40;;
6412;SDS011;3239;48.714;9.472;2022-07-22T13:20:15;5.07;;;4.50;;
6412;SDS011;3239;48.714;9.472;2022-07-22T13:22:43;5.07;;;4.00;;
6412;SDS011;3239;48.714;9.472;2022-07-22T13:25:10;4.10;;;3.60;;
6412;SDS011;3239;48.714;9.472;2022-07-22T13:27:36;5.17;;;4.10;;
6412;SDS011;3239;48.714;9.472;2022-07-22T13:30:02;4.47;;;4.07;;
6412;SDS011;3239;48.714;9.472;2022-07-22T13:32:29;4.30;;;3.90;;
6412;SDS011;3239;48.714;9.472;2022-07-22T13:34:55;6.00;;;3.73;;
6412;SDS011;3239;48.714;9.472;2022-07-22T13:37:21;4.13;;;3.83;;
6412;SDS011;3239;48.714;9.472;2022-07-22T13:39:48;5.00;;;4.17;;
6412;SDS011;3239;48.714;9.472;2022-07-22T13:42:17;5.00;;;3.70;;
6412;SDS011;3239;48.714;9.472;2022-07-22T13:44:44;5.50;;;4.03;;
6412;SDS011;3239;48.714;9.472;2022-07-22T13:47:11;4.73;;;3.77;;
6412;SDS011;3239;48.714;9.472;2022-07-22T13:49:36;5.37;;;4.07;;
6412;SDS011;3239;48.714;9.472;2022-07-22T13:52:02;5.13;;;4.50;;
6412;SDS011;3239;48.714;9.472;2022-07-22T13:54:29;5.00;;;4.60;;
6412;SDS011;3239;48.714;9.472;2022-07-22T13:56:55;6.53;;;4.33;;
6412;SDS011;3239;48.714;9.472;2022-07-22T13:59:22;4.50;;;4.10;;
6412;SDS011;3239;48.714;9.472;2022-07-22T14:01:49;4.67;;;3.97;;
6412;SDS011;3239;48.714;9.472;2022-07-22T14:04:15;5.60;;;4.10;;
6412;SDS011;3239;48.714;9.472;2022-07-22T14:06:41;4.27;;;3.87;;
6412;SDS011;3239;48.714;9.472;2022-07-22T14:09:06;4.33;;;3.93;;
6412;SDS011;3239;48.714;9.472;2022-07-22T14:11:32;5.83;;;4.27;;
6412;SDS011;3239;48.714;9.472;2022-07-22T14:13:58;4.30;;;3.87;;
6412;SDS011;3239;48.714;9.472;2022-07-22T14:16:24;6.33;;;4.20;;
6412;SDS011;3239;48.714;9.472;2022-07-22T14:18:59;5.10;;;4.17;;
6412;SDS011;3239;48.714;9.472;2022-07-22T14:21:25;5.10;;;3.90;;
6412;SDS011;3239;48.714;9.472;2022-07-22T14:23:51;5.33;;;4.03;;
6412;SDS011;3239;48.714;9.472;2022-07-22T14:26:17;4.10;;;3.77;;
6412;SDS011;3239;48.714;9.472;2022-07-22T14:28:43;4.53;;;4.13;;
6412;SDS011;3239;48.714;9.472;2022-07-22T14:31:09;6.33;;;3.97;;
6412;SDS011;3239;48.714;9.472;2022-07-22T14:33:34;6.73;;;3.90;;
6412;SDS011;3239;48.714;9.472;2022-07-22T14:36:00;4.33;;;3.97;;
6412;SDS011;3239;48.714;9.472;2022-07-22T14:38:26;5.27;;;3.73;;
6412;SDS011;3239;48.714;9.472;2022-07-22T14:40:52;4.40;;;3.63;;
6412;SDS011;3239;48.714;9.472;2022-07-22T14:43:17;3.97;;;3.67;;
6412;SDS011;3239;48.714;9.472;2022-07-22T14:45:43;5.33;;;4.30;;
6412;SDS011;3239;48.714;9.472;2022-07-22T14:48:09;4.77;;;4.30;;
6412;SDS011;3239;48.714;9.472;2022-07-22T14:50:35;4.40;;;4.00;;
6412;SDS011;3239;48.714;9.472;2022-07-22T14:53:00;5.23;;;4.10;;
6412;SDS011;3239;48.714;9.472;2022-07-22T14:55:26;4.13;;;3.83;;
6412;SDS011;3239;48.714;9.472;2022-07-22T14:57:52;5.03;;;4.10;;
6412;SDS011;3239;48.714;9.472;2022-07-22T15:00:18;4.30;;;3.80;;
6412;SDS011;3239;48.714;9.472;2022-07-22T15:02:43;5.20;;;3.80;;
6412;SDS011;3239;48.714;9.472;2022-07-22T15:05:09;4.53;;;4.00;;
6412;SDS011;3239;48.714;9.472;2022-07-22T15:07:35;5.23;;;4.10;;
6412;SDS011;3239;48.714;9.472;2022-07-22T15:10:01;4.10;;;3.50;;
6412;SDS011;3239;48.714;9.472;2022-07-22T15:12:27;7.43;;;4.63;;
6412;SDS011;3239;48.714;9.472;2022-07-22T15:14:53;7.20;;;3.83;;
6412;SDS011;3239;48.714;9.472;2022-07-22T15:17:18;4.10;;;3.70;;
6412;SDS011;3239;48.714;9.472;2022-07-22T15:19:44;7.57;;;4.37;;
6412;SDS011;3239;48.714;9.472;2022-07-22T15:22:10;5.97;;;3.73;;
6412;SDS011;3239;48.714;9.472;2022-07-22T15:24:36;4.37;;;3.90;;
6412;SDS011;3239;48.714;9.472;2022-07-22T15:27:02;4.23;;;3.57;;
6412;SDS011;3239;48.714;9.472;2022-07-22T15:29:28;7.23;;;4.00;;